Keezletown, VA

12:20 PM EDT on August 24, 2019 (GMT -0400)
Massanutten Village | | Change Station

Elev 1444 ft 38.41 °N, 78.73 °W | Updated 10 seconds ago

Partly Cloudy
Partly Cloudy
69.6 °F
Feels Like 69.6 °F
N
0
Wind Variable Wind from WSW
Gusts 0.0 mph

Today
High -- | Low -- °F
--% Chance of Precip.
Yesterday
High -- | Low -- °F
Precip. -- in
Pressure 30.23 in
Visibility 10.0 miles
Clouds Scattered Clouds 2700 ft
Scattered Clouds 3500 ft
Scattered Clouds 6000 ft
Dew Point 59 °F
Humidity 68%
Rainfall 0.00 in
Snow Depth Not available.
6:37 AM 7:56 PM
Last Quarter, 39% visible
METAR KSHD 241550Z AUTO 05009KT 10SM SCT027 SCT035 SCT060 22/15 A3023 RMK AO2 T02170145
Pressure 30.23 in
Visibility 10.0 miles
Clouds Scattered Clouds 2700 ft
Scattered Clouds 3500 ft
Scattered Clouds 6000 ft
Dew Point 59 °F
Humidity 68%
Rainfall 0.00 in
Snow Depth Not available.
6:37 AM 7:56 PM
Last Quarter, 39% visible
METAR KSHD 241550Z AUTO 05009KT 10SM SCT027 SCT035 SCT060 22/15 A3023 RMK AO2 T02170145

Get Severe Weather Alerts

Thanks for signing up!

Be on the lookout for a verification email in your inbox.

You'll start receiving the daily forecast at 6 AM.

×

10-Day Weather Forecast

Almanac

Astronomy

Aug. 24, 2019 Rise Set
Actual Time
Civil Twilight
Nautical Twilight
Astronomical Twilight
Moon
Length of Visible Light
Length of Day
Tomorrow will be .
, % of the Moon is Illuminated

Today's Extremes

State Highs State Lows

Community

WunderPhotos

Category 6

Welcome to Category 6. This is the collective home for Weather Underground's featured writeups by Dr. Jeff Masters (right), Bob Henson (left), Chris Burt, and other regular contributors.

Nearby

Air Quality

  Air Quality AQ Index Pollutant
Not available.

Snow Depth

Station Depth Elevation

Earthquake Activity

City Distance Mag. Time & Date
Minimum magnitude displayed is 2.5.

Coastal Water Temperatures

Place Temperature

Stations

Nearby Weather Stations

Station Location Temp. Windchill Dew Point Humidity Wind Precip. Elev Updated Type
                   

Watches & Warnings

There are currently no watches in effect.